LVCTT SANE-SAME
Flight info
| Callsign | LVCTT |
|---|---|
| Flight time | 1h 9m |
| Altitude | 43000 |
| Route | CAT UW3 MEBRA MEBRA2U |
| Aircraft | C750/M-SBDE3FGHRWXY/S |
Departure
| Time | 2026-05-09 00:58 |
|---|---|
| Airport | Vicecomodoro Angel D. La Paz Aragonés Airport (SANE) |
Arrival
| Time | 2026-05-09 02:07 |
|---|---|
| Airport | Governor Francisco Gabrielli International Airport (SAME) |
| Time | Latitude | Longitude | Altitude | Speed | Heading |
|---|---|---|---|---|---|
| 2026-05-09 00:43 | -27.75610 | -64.29949 | 660 ft | 0 kts | 145° |
| 2026-05-09 00:53 | -27.75615 | -64.29949 | 660 ft | 2 kts | 185° |
| 2026-05-09 00:53 | -27.75616 | -64.29977 | 660 ft | 7 kts | 261° |
| 2026-05-09 00:53 | -27.75652 | -64.30018 | 662 ft | 4 kts | 238° |
| 2026-05-09 00:53 | -27.75663 | -64.30060 | 665 ft | 13 kts | 257° |
| 2026-05-09 00:54 | -27.75698 | -64.30192 | 665 ft | 22 kts | 257° |
| 2026-05-09 00:54 | -27.75755 | -64.30397 | 665 ft | 32 kts | 242° |
| 2026-05-09 00:54 | -27.75921 | -64.30617 | 664 ft | 42 kts | 213° |
| 2026-05-09 00:54 | -27.76209 | -64.30778 | 664 ft | 51 kts | 206° |
| 2026-05-09 00:55 | -27.76544 | -64.30983 | 665 ft | 57 kts | 207° |
| 2026-05-09 00:55 | -27.76884 | -64.31184 | 663 ft | 53 kts | 207° |
| 2026-05-09 00:55 | -27.77202 | -64.31371 | 664 ft | 50 kts | 207° |
| 2026-05-09 00:55 | -27.77473 | -64.31526 | 667 ft | 20 kts | 194° |
| 2026-05-09 00:56 | -27.77510 | -64.31536 | 667 ft | 2 kts | 287° |
| 2026-05-09 00:56 | -27.77481 | -64.31536 | 667 ft | 5 kts | 30° |
| 2026-05-09 00:56 | -27.77468 | -64.31528 | 667 ft | 0 kts | 28° |
| 2026-05-09 00:57 | -27.77450 | -64.31517 | 667 ft | 24 kts | 28° |
| 2026-05-09 00:57 | -27.76932 | -64.31210 | 664 ft | 136 kts | 28° |
| 2026-05-09 00:58 | -27.75990 | -64.30672 | 1061 ft | 154 kts | 27° |
| 2026-05-09 00:58 | -27.74973 | -64.30118 | 1631 ft | 175 kts | 27° |
| 2026-05-09 00:58 | -27.73809 | -64.29384 | 1964 ft | 208 kts | 31° |
| 2026-05-09 00:58 | -27.72387 | -64.28720 | 2220 ft | 240 kts | 10° |
| 2026-05-09 00:59 | -27.70674 | -64.29123 | 2512 ft | 267 kts | 331° |
| 2026-05-09 00:59 | -27.69475 | -64.30690 | 3483 ft | 268 kts | 301° |
| 2026-05-09 00:59 | -27.68752 | -64.32614 | 4716 ft | 266 kts | 295° |
| 2026-05-09 00:59 | -27.68093 | -64.34572 | 5729 ft | 273 kts | 284° |
| 2026-05-09 01:00 | -27.68304 | -64.36703 | 6718 ft | 280 kts | 251° |
| 2026-05-09 01:00 | -27.69352 | -64.38547 | 7849 ft | 282 kts | 234° |
| 2026-05-09 01:00 | -27.70619 | -64.40265 | 8930 ft | 286 kts | 233° |
| 2026-05-09 01:00 | -27.71848 | -64.42051 | 9918 ft | 290 kts | 236° |
| 2026-05-09 01:01 | -27.73053 | -64.43934 | 10528 ft | 306 kts | 236° |
| 2026-05-09 01:01 | -27.74370 | -64.45962 | 10728 ft | 334 kts | 235° |
| 2026-05-09 01:01 | -27.75812 | -64.48113 | 11194 ft | 346 kts | 234° |
| 2026-05-09 01:01 | -27.77258 | -64.50272 | 12138 ft | 345 kts | 234° |
| 2026-05-09 01:02 | -27.78686 | -64.52442 | 13032 ft | 343 kts | 234° |
| 2026-05-09 01:02 | -27.80109 | -64.54606 | 13855 ft | 344 kts | 234° |
| 2026-05-09 01:02 | -27.81542 | -64.56774 | 14636 ft | 345 kts | 235° |
| 2026-05-09 01:02 | -27.82980 | -64.58946 | 15414 ft | 346 kts | 235° |
| 2026-05-09 01:03 | -27.84399 | -64.61095 | 16208 ft | 346 kts | 235° |
| 2026-05-09 01:03 | -27.85835 | -64.63272 | 17010 ft | 346 kts | 236° |
| 2026-05-09 01:03 | -27.87273 | -64.65460 | 17799 ft | 346 kts | 236° |
| 2026-05-09 01:03 | -27.88245 | -64.66938 | 18319 ft | 347 kts | 236° |
| 2026-05-09 01:04 | -27.89690 | -64.69129 | 19097 ft | 348 kts | 236° |
| 2026-05-09 01:04 | -27.91139 | -64.71324 | 19931 ft | 349 kts | 236° |
| 2026-05-09 01:04 | -27.92572 | -64.73503 | 20682 ft | 351 kts | 236° |
| 2026-05-09 01:04 | -27.94032 | -64.75728 | 21424 ft | 353 kts | 236° |
| 2026-05-09 01:05 | -27.95499 | -64.77958 | 22199 ft | 354 kts | 236° |
| 2026-05-09 01:05 | -27.96971 | -64.80197 | 22942 ft | 355 kts | 236° |
| 2026-05-09 01:05 | -27.99931 | -64.84708 | 24361 ft | 359 kts | 236° |
| 2026-05-09 01:06 | -28.01424 | -64.86985 | 25068 ft | 360 kts | 236° |
| 2026-05-09 01:06 | -28.02912 | -64.89253 | 25857 ft | 359 kts | 236° |
| 2026-05-09 01:06 | -28.04408 | -64.91535 | 26439 ft | 363 kts | 236° |
| 2026-05-09 01:06 | -28.05914 | -64.93835 | 27052 ft | 365 kts | 236° |
| 2026-05-09 01:07 | -28.07430 | -64.96151 | 27663 ft | 367 kts | 236° |
| 2026-05-09 01:07 | -28.08955 | -64.98481 | 28232 ft | 369 kts | 235° |
| 2026-05-09 01:07 | -28.10490 | -65.00829 | 28821 ft | 372 kts | 236° |
| 2026-05-09 01:07 | -28.12031 | -65.03189 | 29367 ft | 374 kts | 235° |
| 2026-05-09 01:08 | -28.13584 | -65.05566 | 29911 ft | 376 kts | 235° |
| 2026-05-09 01:08 | -28.15145 | -65.07956 | 30429 ft | 378 kts | 235° |
| 2026-05-09 01:08 | -28.16714 | -65.10360 | 30905 ft | 381 kts | 235° |
| 2026-05-09 01:08 | -28.18269 | -65.12745 | 31559 ft | 379 kts | 234° |
| 2026-05-09 01:09 | -28.19848 | -65.15169 | 32215 ft | 376 kts | 234° |
| 2026-05-09 01:09 | -28.21397 | -65.17548 | 32840 ft | 374 kts | 233° |
| 2026-05-09 01:09 | -28.22938 | -65.19915 | 33445 ft | 372 kts | 233° |
| 2026-05-09 01:09 | -28.24471 | -65.22271 | 34054 ft | 370 kts | 233° |
| 2026-05-09 01:10 | -28.25994 | -65.24614 | 34679 ft | 368 kts | 233° |
| 2026-05-09 01:10 | -28.27493 | -65.26920 | 35292 ft | 367 kts | 233° |
| 2026-05-09 01:10 | -28.29003 | -65.29242 | 35890 ft | 365 kts | 233° |
| 2026-05-09 01:10 | -28.30503 | -65.31556 | 36513 ft | 363 kts | 233° |
| 2026-05-09 01:11 | -28.31995 | -65.33856 | 37060 ft | 362 kts | 233° |
| 2026-05-09 01:11 | -28.33482 | -65.36147 | 37693 ft | 358 kts | 233° |
| 2026-05-09 01:11 | -28.34952 | -65.38415 | 38276 ft | 354 kts | 233° |
| 2026-05-09 01:11 | -28.36404 | -65.40656 | 38816 ft | 351 kts | 233° |
| 2026-05-09 01:12 | -28.37842 | -65.42878 | 39280 ft | 349 kts | 233° |
| 2026-05-09 01:12 | -28.39283 | -65.45105 | 39661 ft | 351 kts | 234° |
| 2026-05-09 01:12 | -28.40733 | -65.47346 | 39957 ft | 354 kts | 234° |
| 2026-05-09 01:12 | -28.42199 | -65.49614 | 40267 ft | 357 kts | 234° |
| 2026-05-09 01:13 | -28.43675 | -65.51900 | 40571 ft | 361 kts | 234° |
| 2026-05-09 01:13 | -28.45167 | -65.54210 | 40849 ft | 364 kts | 234° |
| 2026-05-09 01:13 | -28.46670 | -65.56538 | 41216 ft | 366 kts | 234° |
| 2026-05-09 01:13 | -28.48182 | -65.58881 | 41520 ft | 370 kts | 234° |
| 2026-05-09 01:14 | -28.49712 | -65.61257 | 41826 ft | 372 kts | 234° |
| 2026-05-09 01:14 | -28.51252 | -65.63647 | 42151 ft | 376 kts | 235° |
| 2026-05-09 01:14 | -28.52802 | -65.66053 | 42429 ft | 379 kts | 235° |
| 2026-05-09 01:14 | -28.54363 | -65.68476 | 42682 ft | 382 kts | 235° |
| 2026-05-09 01:15 | -28.55926 | -65.70907 | 42911 ft | 381 kts | 235° |
| 2026-05-09 01:15 | -28.59210 | -65.75812 | 42903 ft | 398 kts | 231° |
| 2026-05-09 01:16 | -28.62929 | -65.80600 | 42928 ft | 415 kts | 231° |
| 2026-05-09 01:16 | -28.66789 | -65.85640 | 42931 ft | 429 kts | 231° |
| 2026-05-09 01:17 | -28.72773 | -65.93403 | 42950 ft | 436 kts | 231° |
| 2026-05-09 01:17 | -28.76776 | -65.98618 | 42949 ft | 437 kts | 231° |
| 2026-05-09 01:18 | -28.80780 | -66.03838 | 42945 ft | 435 kts | 231° |
| 2026-05-09 01:18 | -28.84748 | -66.09020 | 42949 ft | 434 kts | 230° |
| 2026-05-09 01:19 | -28.88733 | -66.14223 | 42955 ft | 435 kts | 230° |
| 2026-05-09 01:19 | -28.92702 | -66.19422 | 42961 ft | 435 kts | 230° |
| 2026-05-09 01:20 | -28.96679 | -66.24627 | 42969 ft | 435 kts | 230° |
| 2026-05-09 01:20 | -29.00639 | -66.29827 | 42980 ft | 433 kts | 230° |
| 2026-05-09 01:21 | -29.04572 | -66.34992 | 42986 ft | 433 kts | 230° |
| 2026-05-09 01:21 | -29.08522 | -66.40189 | 42993 ft | 433 kts | 230° |
| 2026-05-09 01:22 | -29.12469 | -66.45393 | 42994 ft | 433 kts | 230° |
| 2026-05-09 01:22 | -29.16418 | -66.50605 | 43008 ft | 433 kts | 230° |
| 2026-05-09 01:23 | -29.20360 | -66.55814 | 43007 ft | 433 kts | 230° |
| 2026-05-09 01:23 | -29.24302 | -66.61029 | 43012 ft | 433 kts | 230° |
| 2026-05-09 01:24 | -29.28231 | -66.66235 | 43012 ft | 431 kts | 230° |
| 2026-05-09 01:24 | -29.32154 | -66.71439 | 43013 ft | 432 kts | 230° |
| 2026-05-09 01:25 | -29.36077 | -66.76649 | 43017 ft | 431 kts | 230° |
| 2026-05-09 01:25 | -29.40446 | -66.81375 | 43006 ft | 433 kts | 220° |
| 2026-05-09 01:26 | -29.45477 | -66.85132 | 43018 ft | 435 kts | 215° |
| 2026-05-09 01:26 | -29.50585 | -66.88863 | 43022 ft | 435 kts | 216° |
| 2026-05-09 01:27 | -29.55696 | -66.92565 | 43026 ft | 436 kts | 215° |
| 2026-05-09 01:27 | -29.60863 | -66.96331 | 43025 ft | 443 kts | 216° |
| 2026-05-09 01:28 | -29.66099 | -67.00141 | 43009 ft | 447 kts | 215° |
| 2026-05-09 01:28 | -29.71357 | -67.03976 | 43015 ft | 447 kts | 215° |
| 2026-05-09 01:29 | -29.76582 | -67.07793 | 43019 ft | 449 kts | 215° |
| 2026-05-09 01:29 | -29.81857 | -67.11648 | 43020 ft | 450 kts | 215° |
| 2026-05-09 01:30 | -29.87133 | -67.15511 | 43018 ft | 449 kts | 216° |
| 2026-05-09 01:30 | -29.92408 | -67.19377 | 43016 ft | 449 kts | 216° |
| 2026-05-09 01:31 | -29.97666 | -67.23236 | 43027 ft | 448 kts | 216° |
| 2026-05-09 01:31 | -30.02907 | -67.27102 | 43022 ft | 447 kts | 215° |
| 2026-05-09 01:32 | -30.08169 | -67.30957 | 43024 ft | 448 kts | 215° |
| 2026-05-09 01:32 | -30.13420 | -67.34830 | 43018 ft | 447 kts | 215° |
| 2026-05-09 01:33 | -30.18673 | -67.38686 | 43020 ft | 447 kts | 215° |
| 2026-05-09 01:33 | -30.23870 | -67.42549 | 43023 ft | 447 kts | 215° |
| 2026-05-09 01:34 | -30.29115 | -67.46421 | 43030 ft | 447 kts | 215° |
| 2026-05-09 01:34 | -30.34349 | -67.50297 | 43024 ft | 447 kts | 215° |
| 2026-05-09 01:35 | -30.39588 | -67.54179 | 43021 ft | 447 kts | 215° |
| 2026-05-09 01:35 | -30.44823 | -67.58066 | 43010 ft | 447 kts | 215° |
| 2026-05-09 01:36 | -30.50066 | -67.61933 | 43018 ft | 446 kts | 215° |
| 2026-05-09 01:36 | -30.55588 | -67.65247 | 43247 ft | 441 kts | 207° |
| 2026-05-09 01:37 | -30.60738 | -67.68954 | 43161 ft | 442 kts | 220° |
| 2026-05-09 01:37 | -30.65528 | -67.73485 | 43034 ft | 446 kts | 220° |
| 2026-05-09 01:38 | -30.70721 | -67.77486 | 43020 ft | 450 kts | 213° |
| 2026-05-09 01:38 | -30.76054 | -67.81277 | 43023 ft | 449 kts | 216° |
| 2026-05-09 01:39 | -30.81273 | -67.85297 | 43010 ft | 451 kts | 215° |
| 2026-05-09 01:39 | -30.86546 | -67.89249 | 43013 ft | 451 kts | 215° |
| 2026-05-09 01:40 | -30.89141 | -67.91194 | 43000 ft | 434 kts | 215° |
| 2026-05-09 01:40 | -30.91628 | -67.93062 | 42598 ft | 417 kts | 215° |
| 2026-05-09 01:40 | -30.94024 | -67.94864 | 42055 ft | 404 kts | 215° |
| 2026-05-09 01:40 | -30.96341 | -67.96610 | 41536 ft | 390 kts | 214° |
| 2026-05-09 01:41 | -30.98583 | -67.98298 | 41036 ft | 377 kts | 214° |
| 2026-05-09 01:41 | -31.00749 | -67.99928 | 40549 ft | 365 kts | 214° |
| 2026-05-09 01:41 | -31.02852 | -68.01512 | 40069 ft | 356 kts | 214° |
| 2026-05-09 01:41 | -31.04906 | -68.03063 | 39605 ft | 347 kts | 214° |
| 2026-05-09 01:42 | -31.06920 | -68.04584 | 39142 ft | 342 kts | 213° |
| 2026-05-09 01:42 | -31.08920 | -68.06003 | 38698 ft | 341 kts | 210° |
| 2026-05-09 01:42 | -31.11069 | -68.07209 | 38263 ft | 345 kts | 205° |
| 2026-05-09 01:42 | -31.13330 | -68.08174 | 37857 ft | 347 kts | 201° |
| 2026-05-09 01:43 | -31.15680 | -68.08886 | 37473 ft | 350 kts | 197° |
| 2026-05-09 01:43 | -31.18050 | -68.09519 | 37100 ft | 348 kts | 198° |
| 2026-05-09 01:43 | -31.20399 | -68.10169 | 36732 ft | 347 kts | 198° |
| 2026-05-09 01:43 | -31.22750 | -68.10819 | 36376 ft | 347 kts | 198° |
| 2026-05-09 01:44 | -31.25097 | -68.11456 | 36028 ft | 347 kts | 197° |
| 2026-05-09 01:44 | -31.27451 | -68.12095 | 35681 ft | 349 kts | 197° |
| 2026-05-09 01:44 | -31.29827 | -68.12745 | 35346 ft | 352 kts | 198° |
| 2026-05-09 01:44 | -31.32219 | -68.13400 | 35003 ft | 354 kts | 197° |
| 2026-05-09 01:45 | -31.34612 | -68.14054 | 34668 ft | 353 kts | 197° |
| 2026-05-09 01:45 | -31.36994 | -68.14703 | 34339 ft | 350 kts | 197° |
| 2026-05-09 01:45 | -31.39359 | -68.15349 | 34015 ft | 349 kts | 197° |
| 2026-05-09 01:45 | -31.41725 | -68.15999 | 33690 ft | 350 kts | 197° |
| 2026-05-09 01:46 | -31.44098 | -68.16653 | 33385 ft | 351 kts | 197° |
| 2026-05-09 01:46 | -31.46481 | -68.17308 | 33094 ft | 353 kts | 197° |
| 2026-05-09 01:46 | -31.48886 | -68.17966 | 32790 ft | 357 kts | 197° |
| 2026-05-09 01:46 | -31.51326 | -68.18634 | 32488 ft | 361 kts | 197° |
| 2026-05-09 01:47 | -31.53769 | -68.19302 | 32212 ft | 360 kts | 198° |
| 2026-05-09 01:47 | -31.55998 | -68.19917 | 31965 ft | 363 kts | 198° |
| 2026-05-09 01:47 | -31.58461 | -68.20595 | 31688 ft | 365 kts | 198° |
| 2026-05-09 01:47 | -31.60945 | -68.21277 | 31440 ft | 366 kts | 198° |
| 2026-05-09 01:48 | -31.63426 | -68.21959 | 31178 ft | 368 kts | 198° |
| 2026-05-09 01:48 | -31.65925 | -68.22648 | 30912 ft | 370 kts | 198° |
| 2026-05-09 01:48 | -31.68448 | -68.23344 | 30644 ft | 375 kts | 198° |
| 2026-05-09 01:48 | -31.70976 | -68.24039 | 30387 ft | 372 kts | 198° |
| 2026-05-09 01:49 | -31.73468 | -68.24724 | 30130 ft | 372 kts | 198° |
| 2026-05-09 01:49 | -31.75983 | -68.25419 | 29874 ft | 372 kts | 199° |
| 2026-05-09 01:49 | -31.78498 | -68.26114 | 29613 ft | 370 kts | 199° |
| 2026-05-09 01:49 | -31.81006 | -68.26806 | 29355 ft | 369 kts | 199° |
| 2026-05-09 01:50 | -31.83503 | -68.27496 | 29095 ft | 368 kts | 199° |
| 2026-05-09 01:50 | -31.85995 | -68.28186 | 28839 ft | 367 kts | 199° |
| 2026-05-09 01:50 | -31.88481 | -68.28874 | 28591 ft | 367 kts | 198° |
| 2026-05-09 01:50 | -31.90961 | -68.29560 | 28341 ft | 365 kts | 198° |
| 2026-05-09 01:51 | -31.93432 | -68.30245 | 28093 ft | 365 kts | 198° |
| 2026-05-09 01:51 | -31.95068 | -68.30698 | 27937 ft | 363 kts | 198° |
| 2026-05-09 01:51 | -31.97524 | -68.31378 | 27689 ft | 362 kts | 198° |
| 2026-05-09 01:51 | -32.00801 | -68.32288 | 27360 ft | 362 kts | 198° |
| 2026-05-09 01:52 | -32.02422 | -68.32739 | 27167 ft | 361 kts | 198° |
| 2026-05-09 01:52 | -32.04870 | -68.33419 | 26432 ft | 360 kts | 198° |
| 2026-05-09 01:52 | -32.07292 | -68.34090 | 25675 ft | 354 kts | 198° |
| 2026-05-09 01:52 | -32.09675 | -68.34780 | 24920 ft | 350 kts | 198° |
| 2026-05-09 01:53 | -32.11977 | -68.35456 | 24163 ft | 332 kts | 198° |
| 2026-05-09 01:53 | -32.14169 | -68.36085 | 23400 ft | 317 kts | 198° |
| 2026-05-09 01:53 | -32.16275 | -68.36688 | 22630 ft | 306 kts | 199° |
| 2026-05-09 01:53 | -32.18315 | -68.37279 | 21863 ft | 298 kts | 199° |
| 2026-05-09 01:54 | -32.20302 | -68.37857 | 21101 ft | 291 kts | 200° |
| 2026-05-09 01:54 | -32.22251 | -68.38419 | 20331 ft | 286 kts | 200° |
| 2026-05-09 01:54 | -32.24174 | -68.38973 | 19575 ft | 282 kts | 200° |
| 2026-05-09 01:54 | -32.26029 | -68.39508 | 18833 ft | 277 kts | 201° |
| 2026-05-09 01:55 | -32.27918 | -68.40063 | 18079 ft | 280 kts | 201° |
| 2026-05-09 01:55 | -32.29804 | -68.40609 | 17328 ft | 279 kts | 201° |
| 2026-05-09 01:55 | -32.31687 | -68.41151 | 16578 ft | 278 kts | 201° |
| 2026-05-09 01:55 | -32.33530 | -68.41682 | 16052 ft | 273 kts | 200° |
| 2026-05-09 01:56 | -32.35389 | -68.42222 | 15543 ft | 272 kts | 200° |
| 2026-05-09 01:56 | -32.37207 | -68.42753 | 15050 ft | 274 kts | 199° |
| 2026-05-09 01:56 | -32.39060 | -68.43291 | 14555 ft | 275 kts | 199° |
| 2026-05-09 01:56 | -32.40927 | -68.43831 | 14056 ft | 276 kts | 198° |
| 2026-05-09 01:57 | -32.42794 | -68.44374 | 13561 ft | 276 kts | 197° |
| 2026-05-09 01:57 | -32.44663 | -68.44915 | 13066 ft | 277 kts | 197° |
| 2026-05-09 01:57 | -32.46537 | -68.45458 | 12568 ft | 277 kts | 196° |
| 2026-05-09 01:57 | -32.48406 | -68.46002 | 12070 ft | 276 kts | 196° |
| 2026-05-09 01:58 | -32.50275 | -68.46547 | 11570 ft | 277 kts | 195° |
| 2026-05-09 01:58 | -32.52112 | -68.47083 | 11078 ft | 274 kts | 194° |
| 2026-05-09 01:58 | -32.53946 | -68.47615 | 10580 ft | 269 kts | 194° |
| 2026-05-09 01:58 | -32.55745 | -68.48139 | 10079 ft | 264 kts | 194° |
| 2026-05-09 01:59 | -32.57398 | -68.49038 | 9479 ft | 264 kts | 215° |
| 2026-05-09 01:59 | -32.58583 | -68.50684 | 8914 ft | 265 kts | 237° |
| 2026-05-09 01:59 | -32.59118 | -68.52779 | 8372 ft | 267 kts | 257° |
| 2026-05-09 01:59 | -32.59308 | -68.54850 | 7920 ft | 246 kts | 259° |
| 2026-05-09 02:00 | -32.59493 | -68.56826 | 7579 ft | 238 kts | 257° |
| 2026-05-09 02:00 | -32.59698 | -68.58790 | 7092 ft | 240 kts | 257° |
| 2026-05-09 02:00 | -32.59895 | -68.60739 | 6744 ft | 235 kts | 257° |
| 2026-05-09 02:00 | -32.60080 | -68.62618 | 6432 ft | 229 kts | 256° |
| 2026-05-09 02:01 | -32.60263 | -68.64473 | 6130 ft | 224 kts | 256° |
| 2026-05-09 02:01 | -32.60597 | -68.66204 | 5935 ft | 204 kts | 239° |
| 2026-05-09 02:01 | -32.61165 | -68.67712 | 5927 ft | 203 kts | 238° |
| 2026-05-09 02:01 | -32.61733 | -68.69278 | 5704 ft | 208 kts | 239° |
| 2026-05-09 02:02 | -32.62293 | -68.70859 | 5482 ft | 208 kts | 240° |
| 2026-05-09 02:02 | -32.62858 | -68.72436 | 5242 ft | 209 kts | 239° |
| 2026-05-09 02:02 | -32.63425 | -68.74017 | 4980 ft | 207 kts | 240° |
| 2026-05-09 02:02 | -32.63985 | -68.75581 | 4698 ft | 205 kts | 240° |
| 2026-05-09 02:03 | -32.64525 | -68.77086 | 4478 ft | 189 kts | 240° |
| 2026-05-09 02:03 | -32.65214 | -68.78289 | 4456 ft | 169 kts | 216° |
| 2026-05-09 02:03 | -32.66240 | -68.78947 | 4441 ft | 175 kts | 196° |
| 2026-05-09 02:03 | -32.67487 | -68.79062 | 4097 ft | 182 kts | 179° |
| 2026-05-09 02:04 | -32.68749 | -68.79063 | 3891 ft | 177 kts | 180° |
| 2026-05-09 02:04 | -32.69951 | -68.79088 | 3900 ft | 172 kts | 181° |
| 2026-05-09 02:04 | -32.71143 | -68.79109 | 3895 ft | 165 kts | 180° |
| 2026-05-09 02:04 | -32.72244 | -68.79127 | 3898 ft | 154 kts | 180° |
| 2026-05-09 02:05 | -32.73292 | -68.79140 | 3895 ft | 151 kts | 180° |
| 2026-05-09 02:05 | -32.74383 | -68.79155 | 3774 ft | 156 kts | 180° |
| 2026-05-09 02:05 | -32.75433 | -68.79172 | 3563 ft | 153 kts | 181° |
| 2026-05-09 02:05 | -32.76508 | -68.79188 | 3371 ft | 154 kts | 180° |
| 2026-05-09 02:06 | -32.77583 | -68.79202 | 3167 ft | 155 kts | 180° |
| 2026-05-09 02:06 | -32.78617 | -68.79217 | 2950 ft | 138 kts | 179° |
| 2026-05-09 02:06 | -32.79522 | -68.79216 | 2776 ft | 125 kts | 178° |
| 2026-05-09 02:07 | -32.81231 | -68.79248 | 2530 ft | 122 kts | 179° |
| 2026-05-09 02:07 | -32.82072 | -68.79269 | 2334 ft | 117 kts | 180° |
| 2026-05-09 02:07 | -32.82749 | -68.79282 | 2326 ft | 70 kts | 182° |
| 2026-05-09 02:07 | -32.83001 | -68.79288 | 2324 ft | 20 kts | 180° |
| 2026-05-09 02:08 | -32.83102 | -68.79291 | 2323 ft | 9 kts | 188° |
| 2026-05-09 02:08 | -32.83150 | -68.79334 | 2323 ft | 10 kts | 257° |
| 2026-05-09 02:08 | -32.83179 | -68.79435 | 2323 ft | 17 kts | 224° |
| 2026-05-09 02:08 | -32.83230 | -68.79507 | 2323 ft | 5 kts | 286° |
| 2026-05-09 02:09 | -32.83185 | -68.79515 | 2323 ft | 10 kts | 1° |
| 2026-05-09 02:09 | -32.83092 | -68.79512 | 2323 ft | 17 kts | 2° |
| 2026-05-09 02:09 | -32.83004 | -68.79547 | 2323 ft | 16 kts | 322° |
| 2026-05-09 02:09 | -32.82932 | -68.79646 | 2323 ft | 10 kts | 273° |
| 2026-05-09 02:10 | -32.82908 | -68.79708 | 2323 ft | 7 kts | 346° |
| 2026-05-09 02:10 | -32.82840 | -68.79709 | 2323 ft | 14 kts | 1° |
| 2026-05-09 02:10 | -32.82745 | -68.79707 | 2323 ft | 13 kts | 1° |
| 2026-05-09 02:10 | -32.82690 | -68.79708 | 2323 ft | 3 kts | 330° |
| 2026-05-09 02:11 | -32.82687 | -68.79730 | 2323 ft | 3 kts | 276° |
| 2026-05-09 02:11 | -32.82686 | -68.79751 | 2323 ft | 2 kts | 272° |
| 2026-05-09 02:11 | -32.82686 | -68.79770 | 2323 ft | 2 kts | 270° |
| 2026-05-09 02:11 | -32.82686 | -68.79776 | 2323 ft | 0 kts | 269° |